CDT,Max TemperatureF,Mean TemperatureF,Min TemperatureF,Max Dew PointF,MeanDew PointF,Min DewpointF,Max Humidity, Mean Humidity, Min Humidity, Max Sea Level PressureIn, Mean Sea Level PressureIn, Min Sea Level PressureIn, Max VisibilityMiles, Mean VisibilityMiles, Min VisibilityMiles, Max Wind SpeedMPH, Mean Wind SpeedMPH, Max Gust SpeedMPH,PrecipitationIn, CloudCover, Events, WindDirDegrees
2013-6-1,54,49,43,50,42,39,96,82,68,30.06,29.83,29.64,10,8,1,22,11,29,0.01,8,Rain,18
2013-6-2,61,46,30,39,35,30,100,66,32,30.10,30.07,30.03,10,10,10,16,5,21,0.00,2,,329
2013-6-3,64,47,30,44,34,24,100,62,23,30.14,30.10,30.08,10,10,10,10,3,17,0.00,0,,71
2013-6-4,68,54,40,45,38,30,96,62,28,30.16,30.14,30.12,10,10,10,18,6,22,0.00,6,,108
2013-6-5,63,51,38,47,41,36,92,72,51,30.14,30.13,30.11,10,10,10,20,7,24,0.00,5,,108
2013-6-6,64,50,35,47,43,35,100,76,52,30.13,30.11,30.07,10,10,10,18,5,23,0.00,3,,103
2013-6-7,65,51,36,49,43,35,100,72,44,30.07,30.03,29.95,10,9,0,9,2,13,0.00,5,Fog,138
2013-6-8,74,55,36,48,43,36,100,67,33,29.99,29.95,29.91,10,10,10,14,5,22,0.00,1,,132
2013-6-9,71,57,42,54,50,42,100,74,47,29.98,29.95,29.88,10,8,2,16,8,21,0.21,5,Rain,112
2013-6-10,69,61,53,58,55,53,100,80,59,29.86,29.82,29.78,10,7,0,13,4,30,0.31,7,Fog-Rain-Thunderstorm,241
2013-6-11,77,62,47,57,51,45,100,67,33,29.90,29.86,29.79,10,6,0,16,4,23,T,4,Fog-Rain,291
2013-6-12,72,58,44,51,47,43,100,70,40,30.04,29.94,29.90,10,10,10,15,6,22,0.00,2,,7
2013-6-13,75,64,52,51,46,43,77,55,33,30.17,30.13,30.05,10,10,10,13,6,22,0.00,0,,50
2013-6-14,76,61,46,58,50,44,93,69,44,30.11,30.02,29.87,10,10,10,17,6,22,0.01,3,Rain-Thunderstorm,133
2013-6-15,80,67,53,56,49,43,100,64,28,29.89,29.83,29.73,10,10,6,20,7,28,0.05,4,Rain-Thunderstorm,235
2013-6-16,79,63,47,60,51,46,93,63,32,29.84,29.80,29.77,10,10,2,22,8,35,0.18,4,Rain-Thunderstorm,263
2013-6-17,65,53,41,58,53,42,100,78,56,30.12,29.99,29.86,10,10,10,13,5,17,0.01,6,Rain,77
2013-6-18,74,56,37,48,42,37,100,65,29,30.18,30.11,30.01,10,10,2,10,2,17,0.00,1,,207
2013-6-19,77,66,54,64,53,37,93,70,47,30.03,29.98,29.93,10,10,4,13,4,16,0.13,7,Rain-Thunderstorm,123
2013-6-20,80,69,58,64,61,58,100,77,54,30.04,29.99,29.96,10,10,9,15,6,23,0.00,2,,131
2013-6-21,78,70,61,64,62,59,100,80,60,30.02,29.96,29.90,10,10,10,16,8,21,0.03,5,,86
2013-6-22,73,67,60,64,61,59,97,85,73,30.04,29.98,29.91,10,10,3,16,8,21,0.11,7,Rain,113
2013-6-23,75,67,59,67,61,54,100,79,58,29.91,29.73,29.62,10,8,2,22,9,31,0.06,7,Rain,134
2013-6-24,83,69,54,57,54,51,93,64,34,29.79,29.77,29.75,10,10,10,18,7,26,0.00,0,,238
2013-6-25,87,69,51,65,60,52,100,70,40,29.81,29.76,29.68,10,10,10,13,2,17,0.00,0,,145
2013-6-26,81,70,58,65,63,57,93,76,58,29.75,29.70,29.62,10,9,2,13,5,18,0.36,5,Rain-Thunderstorm,241
2013-6-27,79,67,54,63,59,54,100,74,48,29.74,29.72,29.70,10,10,10,21,9,28,T,4,Rain,274
2013-6-28,74,68,62,63,61,59,93,79,64,29.89,29.79,29.71,10,9,2,18,9,23,0.13,8,Rain,333
2013-6-29,77,64,50,62,53,47,97,67,36,30.04,29.97,29.87,10,9,5,15,5,20,0.00,0,,18
2013-6-30,83,64,45,60,50,44,100,64,28,30.16,30.11,30.04,10,10,8,14,3,16,0.00,1,,360